TFFRTNCM

Guest
Details From TFFR - Pointe a Pitre Le Raizet
To TNCM - St Maarten - Princess Juliana Intl
Flight Number -
Tags generated
Created
Modified
Stats Distance 140 nm / 260 km
Max Altitude 11,700 ft / 3,566 m
Waypoints 3
Social Downloads 0
Likes 0
Share VATSIM

Download

Looking for another format? Having issues loading an existing format? Contact us
Advertisement - Login to hide

Notes

Basic altitude profile: - Ascent Rate: 2500ft/min - Ascent Speed: 250kts - Cruise Altitude: 35000ft - Cruise Speed: 420kts - Descent Rate: 1500ft/min - Descent Speed: 250kts Options: - Use NATs: no - Use PACOTS: no - Use low airways: yes - Use high airways: no

Route

TFFR BIMBO TNCM

ID Type Via Altitude (ft/m) Position (lat/lon) Dist (leg/tot) Name
O TFFR APT - 0 / 0 16.26531 / -61.53181 - / 0 nm Pointe a Pitre Le Raizet
BIMBO FIX - 11,700 / 3,566 16.62667 / -61.96028 32 / 32 nm
O TNCM APT - 0 / 0 18.04089 / -63.10897 107 / 140 nm St Maarten - Princess Juliana Intl

Altitude Profile

Advertisement - Login to hide

TFFR

Details ICAO TFFR (PTP)
Name Point a Pitre - Le Raizet
Region France (Guadeloupe, Martinique, Saint Barthélemy, Saint Martin)
Timezone America/Guadeloupe (UTC-4.0)
Stats Elevation 35 ft / 11 m (AMSL)
Location 16.265500° -61.533000°
Runways 1
Magnetic Variation 14.876° W

METAR

TFFR 211000Z AUTO 00000KT CAVOK 25/22 Q1014 BECMG 09010KT

Decode

TAF

TAF TFFR 210500Z 2106/2206 VRB02KT 9999 SCT025 BECMG 2111/2113 09010KT PROB30 TEMPO 2118/2206 4000 SHRA SCT018TCU BECMG 2200/2202 VRB02KT

Decode

Departure Runways

ID Width Length Bearing (true/mag) Surface Threshold Overrun Markings Lighting
12 148 ft / 45 m 10,673 ft / 3,253 m 100.95° / 115.83° ASPHALT 1,302 ft / 397 m 0 ft / 0 m PREC-APP EDGE THRESHOLD ALSF-I TDZ
30 148 ft / 45 m 10,673 ft / 3,253 m 280.96° / 295.83° ASPHALT 978 ft / 298 m 820 ft / 250 m PREC-APP EDGE THRESHOLD ALSF-I TDZ

TNCM

Details ICAO TNCM (SXM)
Name Princess Juliana Int'l
Region Caribbean Netherlands, Aruba, Curaçao, Sint Maarten
Timezone Unknown
Stats Elevation 12 ft / 4 m (AMSL)
Location 18.040900° -63.108900°
Runways 1
Magnetic Variation 14.346° W

METAR

TNCM 210900Z 07007KT 040V100 5000 HZ SCT018 28/23 Q1014 A2995 RMK HZ ALQDS

Decode

TAF

TAF TNCM 210520Z 2106/2206 07008KT 6SM HZ FEW018 FM211300 08014KT P6SM SCT020 FM212300 07009KT P6SM FEW022

Decode

Destination Runways

ID Width Length Bearing (true/mag) Surface Threshold Overrun Markings Lighting
10 148 ft / 45 m 7,553 ft / 2,302 m 81.44° / 95.79° ASPHALT 331 ft / 101 m 164 ft / 50 m PREC-APP EDGE THRESHOLD REIL-OMNI
28 148 ft / 45 m 7,553 ft / 2,302 m 261.45° / 275.79° ASPHALT 0 ft / 0 m 200 ft / 61 m APP EDGE THRESHOLD

Popular Alternatives